Aérodrome :
LOGIN :

S'inscrire | Disclaimer

   EN    FR    IT 

 










Légende :    VFR   VFR Marginal   IFR   IFR Intensif   IFR Très Intensif
Visi : 
Plafond : 
>= 8 km
>= 3000ft
5 à 8 km
1000 à 3000 ft
1500m à 5 km
500 à 1000 ft
800 à 1500m
200 à 500 ft
< 800m
< 200 ft
Symboles :   Orages  Brouillard  Fortes neiges  Fortes précipitations  Vent > 20 kt
SIGMETs :   Divers  Orages  Givrage  Turbulence  Onde Orograph.  Cendres Volcan.






- Altitude de l'aérodrome : 309 ft
- Code IATA : FNI


LFTW - Nîmes Garons

DERNIER METAR :
  • 170230Z AUTO 11007KT 3400 -RA BR OVC003 11/11 Q1025 TEMPO RA BKN014

METARs EXPIRÉS :
  • 170200Z AUTO 09005KT 3300 -RA BR BKN003 OVC008 11/11 Q1025
  • 170130Z AUTO 11006KT 3600 -RADZ BR OVC004 11/11 Q1026
  • 170100Z AUTO 11004KT 4200 -RA BR OVC008 11/11 Q1026
  • 170030Z AUTO 12005KT 8000 BKN011 BKN016 OVC021 11/11 Q1026

TAF TAF LFTW
Valide du 17 à 03h jusqu'au 18 à 03h UTC


170200Z 1703/1803 10005KT 9999 BKN025 OVC040
TEMPO 1703/1713 3000 RA BKN014
BECMG 1713/1715 21010KT
BECMG 1718/1720 34010KT CAVOK



MET'MAP, la Météo Aéronautique d'un coup d'oeil ! - Copyright ORBIFLY Décembre 2007 - Disclaimer

ORBIFLY MET'MAP TEAM :

Programmation & Développement : Alexandra Zaïnal
Sur une idée originale de : Baudouin d'Aumeries
Assistance à la programmation : Marc-Olivier Méhu
Soutien technique & logistique : Manuel Goepfert

Contact : metmap@orbifly.com




SOURCES & CREDITS :

   NOAA